Time;durP1;ratioP1;P1;durP2;ratioP2;P2;SDS_P1;SDS_P2;PMS_P1;PMS_P2;Temp;Humidity;BMP_temperature;BMP_pressure;BME280_temperature;BME280_humidity;BME280_pressure;Samples;Min_cycle;Max_cycle;Signal;HPM_P1;HPM_P2
2022/01/01 00:00:15;;;;;;;;;0.00;0.00;;;;;;;;5051599;28;8835;-73
2022/01/01 00:02:40;;;;;;;;;0.00;0.00;;;;;;;;5051749;28;8885;-73
2022/01/01 00:05:06;;;;;;;;;0.00;0.00;;;;;;;;5058687;27;8833;-74
2022/01/01 00:07:33;;;;;;;;;0.00;0.00;;;;;;;;5051893;28;8885;-73
2022/01/01 00:09:58;;;;;;;;;0.00;0.00;;;;;;;;5051463;27;8895;-73
2022/01/01 00:12:23;;;;;;;;;0.00;0.00;;;;;;;;5050592;28;8804;-73
2022/01/01 00:14:49;;;;;;;;;0.00;0.00;;;;;;;;5038995;27;8855;-74
2022/01/01 00:17:14;;;;;;;;;0.00;0.00;;;;;;;;5051217;28;8827;-73
2022/01/01 00:19:39;;;;;;;;;0.00;0.00;;;;;;;;5050941;27;8823;-74
2022/01/01 00:22:06;;;;;;;;;0.00;0.00;;;;;;;;5051652;28;8890;-76
2022/01/01 00:24:33;;;;;;;;;0.00;0.00;;;;;;;;5051626;28;8841;-76
2022/01/01 00:26:58;;;;;;;;;0.00;0.00;;;;;;;;5051730;27;8804;-76
2022/01/01 00:29:23;;;;;;;;;0.00;0.00;;;;;;;;5051633;28;8908;-76
2022/01/01 00:31:48;;;;;;;;;0.00;0.00;;;;;;;;5052417;27;9578;-76
2022/01/01 00:34:14;;;;;;;;;0.00;0.00;;;;;;;;5051539;27;8864;-77
2022/01/01 00:36:39;;;;;;;;;0.00;0.00;;;;;;;;5051370;28;8815;-77
2022/01/01 00:39:05;;;;;;;;;0.00;0.00;;;;;;;;5051240;28;9004;-77
2022/01/01 00:41:30;;;;;;;;;0.00;0.00;;;;;;;;5050199;28;8812;-77
2022/01/01 00:43:56;;;;;;;;;0.00;0.00;;;;;;;;5095292;27;9530;-77
2022/01/01 00:46:21;;;;;;;;;0.00;0.00;;;;;;;;5075991;27;8815;-77
2022/01/01 00:48:46;;;;;;;;;0.00;0.00;;;;;;;;5051495;28;9664;-77
2022/01/01 00:51:12;;;;;;;;;0.00;0.00;;;;;;;;5066766;27;8814;-77
2022/01/01 00:53:37;;;;;;;;;0.00;0.00;;;;;;;;5051564;28;8824;-77
2022/01/01 00:56:02;;;;;;;;;0.00;0.00;;;;;;;;5051151;28;8908;-76
2022/01/01 00:58:28;;;;;;;;;0.00;0.00;;;;;;;;5062951;27;8936;-76
2022/01/01 01:00:53;;;;;;;;;0.00;0.00;;;;;;;;5059291;27;9559;-77
2022/01/01 01:03:19;;;;;;;;;0.00;0.00;;;;;;;;5050960;27;8883;-77
2022/01/01 01:05:45;;;;;;;;;0.00;0.00;;;;;;;;5040412;28;8822;-77
2022/01/01 01:08:11;;;;;;;;;0.00;0.00;;;;;;;;5052517;27;8800;-77
2022/01/01 01:10:37;;;;;;;;;0.00;0.00;;;;;;;;5048782;27;8756;-77
2022/01/01 01:13:03;;;;;;;;;0.00;0.00;;;;;;;;5037118;28;9655;-77
2022/01/01 01:15:30;;;;;;;;;0.00;0.00;;;;;;;;5048556;27;8888;-76
2022/01/01 01:17:57;;;;;;;;;0.00;0.00;;;;;;;;5045698;28;8810;-77
2022/01/01 01:20:22;;;;;;;;;0.00;0.00;;;;;;;;5050439;27;8892;-77
2022/01/01 01:22:48;;;;;;;;;0.00;0.00;;;;;;;;5050915;28;8820;-76
2022/01/01 01:25:13;;;;;;;;;0.00;0.00;;;;;;;;5050023;28;8878;-77
2022/01/01 01:27:39;;;;;;;;;0.00;0.00;;;;;;;;5050971;28;9421;-74
2022/01/01 01:30:05;;;;;;;;;0.00;0.00;;;;;;;;5050235;27;8808;-74
2022/01/01 01:32:31;;;;;;;;;0.00;0.00;;;;;;;;5049409;28;8772;-74
2022/01/01 01:34:56;;;;;;;;;0.00;0.00;;;;;;;;5048890;27;9702;-74
2022/01/01 01:37:23;;;;;;;;;0.00;0.00;;;;;;;;5049058;28;8978;-74
2022/01/01 01:39:48;;;;;;;;;0.00;0.00;;;;;;;;5048922;27;8793;-74
2022/01/01 01:42:14;;;;;;;;;0.00;0.00;;;;;;;;5050948;28;8811;-74
2022/01/01 01:44:43;;;;;;;;;0.00;0.00;;;;;;;;5110046;27;9574;-74
2022/01/01 01:47:15;;;;;;;;;0.00;0.00;;;;;;;;5050565;27;8787;-74
2022/01/01 01:49:41;;;;;;;;;0.00;0.00;;;;;;;;5048745;28;8818;-74
2022/01/01 01:52:09;;;;;;;;;0.00;0.00;;;;;;;;5058426;27;8796;-74
2022/01/01 01:54:35;;;;;;;;;0.00;0.00;;;;;;;;5037207;28;8988;-75
2022/01/01 01:57:00;;;;;;;;;0.00;0.00;;;;;;;;5050142;27;8816;-74
2022/01/01 01:59:25;;;;;;;;;0.00;0.00;;;;;;;;5048761;28;9001;-74
2022/01/01 02:01:51;;;;;;;;;0.00;0.00;;;;;;;;5050004;28;9006;-75
2022/01/01 02:04:16;;;;;;;;;0.00;0.00;;;;;;;;5050380;28;9036;-74
2022/01/01 02:06:42;;;;;;;;;0.00;0.00;;;;;;;;5049771;27;9000;-75
2022/01/01 02:09:09;;;;;;;;;0.00;0.00;;;;;;;;5050353;28;8916;-74
2022/01/01 02:11:34;;;;;;;;;0.00;0.00;;;;;;;;5050069;28;8788;-75
2022/01/01 02:14:02;;;;;;;;;0.00;0.00;;;;;;;;5048572;28;8831;-75
2022/01/01 02:16:35;;;;;;;;;0.00;0.00;;;;;;;;5049366;27;8745;-75
2022/01/01 02:19:01;;;;;;;;;0.00;0.00;;;;;;;;5048491;28;8892;-75
2022/01/01 02:21:26;;;;;;;;;0.00;0.00;;;;;;;;5049696;27;8819;-75
2022/01/01 02:23:57;;;;;;;;;0.00;0.00;;;;;;;;5050094;28;8922;-75
2022/01/01 02:26:27;;;;;;;;;0.00;0.00;;;;;;;;5049881;28;8792;-75
2022/01/01 02:28:53;;;;;;;;;0.00;0.00;;;;;;;;5048285;28;8795;-75
2022/01/01 02:31:18;;;;;;;;;0.00;0.00;;;;;;;;5048247;27;8816;-75
2022/01/01 02:33:43;;;;;;;;;0.00;0.00;;;;;;;;5048222;28;8839;-75
2022/01/01 02:36:09;;;;;;;;;0.00;0.00;;;;;;;;5050649;27;9595;-75
2022/01/01 02:38:35;;;;;;;;;0.00;0.00;;;;;;;;5051479;28;8900;-74
2022/01/01 02:41:00;;;;;;;;;0.00;0.00;;;;;;;;5052700;27;8788;-74
2022/01/01 02:43:26;;;;;;;;;0.00;0.00;;;;;;;;5075115;27;8794;-74
2022/01/01 02:45:51;;;;;;;;;0.00;0.00;;;;;;;;5059266;27;8835;-75
2022/01/01 02:48:17;;;;;;;;;0.00;0.00;;;;;;;;5053010;28;8894;-75
2022/01/01 02:50:42;;;;;;;;;0.00;0.00;;;;;;;;5058782;27;9595;-75
2022/01/01 02:53:13;;;;;;;;;0.00;0.00;;;;;;;;5084377;27;8909;-74
2022/01/01 02:55:38;;;;;;;;;0.00;0.00;;;;;;;;5049642;27;8780;-74
2022/01/01 02:58:04;;;;;;;;;0.00;0.00;;;;;;;;5052549;27;8900;-74
2022/01/01 03:00:30;;;;;;;;;0.00;0.00;;;;;;;;5052340;28;8882;-75
2022/01/01 03:02:55;;;;;;;;;0.00;0.00;;;;;;;;5052530;27;8828;-75
2022/01/01 03:05:20;;;;;;;;;0.00;0.00;;;;;;;;5050999;28;8876;-75
2022/01/01 03:07:45;;;;;;;;;0.00;0.00;;;;;;;;5052153;27;8836;-74
2022/01/01 03:10:11;;;;;;;;;0.00;0.00;;;;;;;;5051211;28;9251;-75
2022/01/01 03:12:36;;;;;;;;;0.00;0.00;;;;;;;;5052609;28;8897;-75
2022/01/01 03:15:02;;;;;;;;;0.00;0.00;;;;;;;;5051933;27;8824;-75
2022/01/01 03:17:27;;;;;;;;;0.00;0.00;;;;;;;;5052265;28;8792;-74
2022/01/01 03:19:53;;;;;;;;;0.00;0.00;;;;;;;;5052035;28;8846;-74
2022/01/01 03:22:18;;;;;;;;;0.00;0.00;;;;;;;;5052614;27;8918;-75
2022/01/01 03:24:43;;;;;;;;;0.00;0.00;;;;;;;;5050436;28;8816;-75
2022/01/01 03:27:09;;;;;;;;;0.00;0.00;;;;;;;;5051077;28;8808;-75
2022/01/01 03:29:34;;;;;;;;;0.00;0.00;;;;;;;;5050426;28;8815;-75
2022/01/01 03:31:59;;;;;;;;;0.00;0.00;;;;;;;;5052201;27;8804;-75
2022/01/01 03:34:25;;;;;;;;;0.00;0.00;;;;;;;;5052170;27;8821;-75
2022/01/01 03:36:50;;;;;;;;;0.00;0.00;;;;;;;;5050334;28;8839;-75
2022/01/01 03:39:16;;;;;;;;;0.00;0.00;;;;;;;;5052278;27;9536;-75
2022/01/01 03:41:41;;;;;;;;;0.00;0.00;;;;;;;;5052041;28;8820;-75
2022/01/01 03:44:06;;;;;;;;;0.00;0.00;;;;;;;;5083485;27;8796;-75
2022/01/01 03:46:31;;;;;;;;;0.00;0.00;;;;;;;;5051790;28;8780;-75
2022/01/01 03:48:57;;;;;;;;;0.00;0.00;;;;;;;;5051659;27;8788;-75
2022/01/01 03:51:22;;;;;;;;;0.00;0.00;;;;;;;;5087717;27;8824;-75
2022/01/01 03:53:47;;;;;;;;;0.00;0.00;;;;;;;;5053571;27;8999;-75
2022/01/01 03:56:14;;;;;;;;;0.00;0.00;;;;;;;;5052256;28;8804;-75
2022/01/01 03:58:40;;;;;;;;;0.00;0.00;;;;;;;;5051516;27;8847;-75
2022/01/01 04:01:05;;;;;;;;;0.00;0.00;;;;;;;;5052070;28;8807;-75
2022/01/01 04:03:31;;;;;;;;;0.00;0.00;;;;;;;;5063758;28;9025;-75
2022/01/01 04:05:56;;;;;;;;;0.00;0.00;;;;;;;;5050056;28;8836;-75
2022/01/01 04:08:21;;;;;;;;;0.00;0.00;;;;;;;;5051815;27;8842;-75
2022/01/01 04:10:47;;;;;;;;;0.00;0.00;;;;;;;;5051517;28;8912;-75
2022/01/01 04:13:12;;;;;;;;;0.00;0.00;;;;;;;;5052025;28;8968;-75
2022/01/01 04:15:41;;;;;;;;;0.00;0.00;;;;;;;;5051646;27;8856;-75
2022/01/01 04:18:12;;;;;;;;;0.00;0.00;;;;;;;;5051541;28;8834;-75
2022/01/01 04:20:38;;;;;;;;;0.00;0.00;;;;;;;;5051583;28;8784;-75
2022/01/01 04:23:07;;;;;;;;;0.00;0.00;;;;;;;;5049976;28;9673;-75
2022/01/01 04:25:32;;;;;;;;;0.00;0.00;;;;;;;;5050248;27;8760;-75
2022/01/01 04:27:57;;;;;;;;;0.00;0.00;;;;;;;;5049792;28;8804;-75
2022/01/01 04:30:23;;;;;;;;;0.00;0.00;;;;;;;;5050222;28;8846;-75
2022/01/01 04:32:48;;;;;;;;;0.00;0.00;;;;;;;;5049796;28;8862;-75
2022/01/01 04:35:14;;;;;;;;;0.00;0.00;;;;;;;;5051761;28;8812;-75
2022/01/01 04:37:39;;;;;;;;;0.00;0.00;;;;;;;;5051200;27;8796;-75
2022/01/01 04:40:05;;;;;;;;;0.00;0.00;;;;;;;;5049896;28;8885;-75
2022/01/01 04:42:31;;;;;;;;;0.00;0.00;;;;;;;;5051512;27;8800;-75
2022/01/01 04:44:57;;;;;;;;;0.00;0.00;;;;;;;;5085241;27;8835;-75
2022/01/01 04:47:23;;;;;;;;;0.00;0.00;;;;;;;;5051375;27;8784;-75
2022/01/01 04:49:48;;;;;;;;;0.00;0.00;;;;;;;;5051342;28;8795;-75
2022/01/01 04:52:14;;;;;;;;;0.00;0.00;;;;;;;;5102944;27;8812;-75
2022/01/01 04:54:41;;;;;;;;;0.00;0.00;;;;;;;;5040232;28;8889;-74
2022/01/01 04:57:07;;;;;;;;;0.00;0.00;;;;;;;;5051245;27;8740;-74
2022/01/01 04:59:33;;;;;;;;;0.00;0.00;;;;;;;;5059096;27;8879;-74
2022/01/01 05:01:58;;;;;;;;;0.00;0.00;;;;;;;;5055190;27;8842;-74
2022/01/01 05:04:23;;;;;;;;;0.00;0.00;;;;;;;;5051222;28;8843;-75
2022/01/01 05:06:49;;;;;;;;;0.00;0.00;;;;;;;;5050851;28;8904;-75
2022/01/01 05:09:18;;;;;;;;;0.00;0.00;;;;;;;;5051024;27;8792;-75
2022/01/01 05:11:44;;;;;;;;;0.00;0.00;;;;;;;;5050851;28;8796;-75
2022/01/01 05:14:09;;;;;;;;;0.00;0.00;;;;;;;;5049682;27;8902;-75
2022/01/01 05:16:35;;;;;;;;;0.00;0.00;;;;;;;;5050632;28;8843;-75
2022/01/01 05:19:01;;;;;;;;;0.00;0.00;;;;;;;;5050716;27;8824;-75
2022/01/01 05:21:30;;;;;;;;;0.00;0.00;;;;;;;;5050819;28;8808;-75
2022/01/01 05:23:56;;;;;;;;;0.00;0.00;;;;;;;;5049502;27;8733;-75
2022/01/01 05:26:21;;;;;;;;;0.00;0.00;;;;;;;;5050732;28;9543;-75
2022/01/01 05:28:49;;;;;;;;;0.00;0.00;;;;;;;;5050761;27;8836;-75
2022/01/01 05:31:14;;;;;;;;;0.00;0.00;;;;;;;;5050598;28;8903;-75
2022/01/01 05:33:39;;;;;;;;;0.00;0.00;;;;;;;;5050594;27;8918;-75
2022/01/01 05:36:05;;;;;;;;;0.00;0.00;;;;;;;;5050469;28;8836;-75
2022/01/01 05:38:30;;;;;;;;;0.00;0.00;;;;;;;;5050828;27;8808;-74
2022/01/01 05:40:55;;;;;;;;;0.00;0.00;;;;;;;;5050443;28;8788;-74
2022/01/01 05:43:21;;;;;;;;;0.00;0.00;;;;;;;;5069302;27;8898;-74
2022/01/01 05:45:46;;;;;;;;;0.00;0.00;;;;;;;;5062421;27;8816;-74
2022/01/01 05:48:12;;;;;;;;;0.00;0.00;;;;;;;;5050623;27;8800;-74
2022/01/01 05:50:37;;;;;;;;;0.00;0.00;;;;;;;;5053188;27;8800;-74
2022/01/01 05:53:03;;;;;;;;;0.00;0.00;;;;;;;;5088972;27;8829;-74
2022/01/01 05:55:28;;;;;;;;;0.00;0.00;;;;;;;;5045922;28;9000;-74
2022/01/01 05:57:53;;;;;;;;;0.00;0.00;;;;;;;;5050292;27;8811;-75
2022/01/01 06:00:19;;;;;;;;;0.00;0.00;;;;;;;;5050219;28;8916;-75
2022/01/01 06:02:44;;;;;;;;;0.00;0.00;;;;;;;;5050111;27;8800;-75
2022/01/01 06:05:10;;;;;;;;;0.00;0.00;;;;;;;;5050384;28;8874;-75
2022/01/01 06:07:36;;;;;;;;;0.00;0.00;;;;;;;;5050093;27;8816;-75
2022/01/01 06:10:02;;;;;;;;;0.00;0.00;;;;;;;;5050960;28;8816;-75
2022/01/01 06:12:27;;;;;;;;;0.00;0.00;;;;;;;;5053210;27;8768;-75
2022/01/01 06:14:53;;;;;;;;;0.00;0.00;;;;;;;;5052808;28;8942;-75
2022/01/01 06:17:18;;;;;;;;;0.00;0.00;;;;;;;;5051689;27;8812;-75
2022/01/01 06:19:43;;;;;;;;;0.00;0.00;;;;;;;;5052954;28;8851;-75
2022/01/01 06:22:08;;;;;;;;;0.00;0.00;;;;;;;;5053267;27;8804;-74
2022/01/01 06:24:34;;;;;;;;;0.00;0.00;;;;;;;;5052969;28;8824;-75
2022/01/01 06:26:59;;;;;;;;;0.00;0.00;;;;;;;;5053074;27;8828;-75
2022/01/01 06:29:24;;;;;;;;;0.00;0.00;;;;;;;;5052695;28;8800;-77
2022/01/01 06:31:50;;;;;;;;;0.00;0.00;;;;;;;;5053170;28;8812;-77
2022/01/01 06:34:15;;;;;;;;;0.00;0.00;;;;;;;;5053348;28;8808;-77
2022/01/01 06:36:40;;;;;;;;;0.00;0.00;;;;;;;;5053028;28;8820;-77
2022/01/01 06:39:06;;;;;;;;;0.00;0.00;;;;;;;;5053109;28;8863;-75
2022/01/01 06:41:31;;;;;;;;;0.00;0.00;;;;;;;;5053063;28;8942;-75
2022/01/01 06:43:57;;;;;;;;;0.00;0.00;;;;;;;;5083140;27;9572;-75
2022/01/01 06:46:22;;;;;;;;;0.00;0.00;;;;;;;;5050970;27;9023;-75
2022/01/01 06:48:47;;;;;;;;;0.00;0.00;;;;;;;;5052599;27;8906;-75
2022/01/01 06:51:13;;;;;;;;;0.00;0.00;;;;;;;;5081626;27;8814;-75
2022/01/01 06:53:38;;;;;;;;;0.00;0.00;;;;;;;;5060260;27;8844;-75
2022/01/01 06:56:05;;;;;;;;;0.00;0.00;;;;;;;;5051117;28;8827;-75
2022/01/01 06:58:35;;;;;;;;;0.00;0.00;;;;;;;;5052432;27;8796;-75
2022/01/01 07:01:00;;;;;;;;;0.00;0.00;;;;;;;;5052255;27;8812;-76
2022/01/01 07:03:25;;;;;;;;;0.00;0.00;;;;;;;;5051181;27;8946;-76
2022/01/01 07:05:51;;;;;;;;;0.00;0.00;;;;;;;;5052369;28;8831;-75
2022/01/01 07:08:16;;;;;;;;;0.00;0.00;;;;;;;;5052541;27;8824;-76
2022/01/01 07:10:44;;;;;;;;;0.00;0.00;;;;;;;;5052146;28;9651;-75
2022/01/01 07:13:10;;;;;;;;;0.00;0.00;;;;;;;;5052563;27;8867;-76
2022/01/01 07:15:35;;;;;;;;;0.00;0.00;;;;;;;;5052193;28;8819;-75
2022/01/01 07:18:00;;;;;;;;;0.00;0.00;;;;;;;;5050526;28;8974;-75
2022/01/01 07:20:26;;;;;;;;;0.00;0.00;;;;;;;;5052380;28;8804;-75
2022/01/01 07:22:51;;;;;;;;;0.00;0.00;;;;;;;;5051374;27;8816;-75
2022/01/01 07:25:16;;;;;;;;;0.00;0.00;;;;;;;;5052774;28;8900;-77
2022/01/01 07:27:42;;;;;;;;;0.00;0.00;;;;;;;;5052091;27;8784;-78
2022/01/01 07:30:08;;;;;;;;;0.00;0.00;;;;;;;;5052538;28;8788;-78
2022/01/01 07:32:37;;;;;;;;;0.00;0.00;;;;;;;;5052396;27;8947;-78
2022/01/01 07:35:03;;;;;;;;;0.00;0.00;;;;;;;;5052383;28;8772;-78
2022/01/01 07:37:28;;;;;;;;;0.00;0.00;;;;;;;;5050941;27;9013;-78
2022/01/01 07:39:53;;;;;;;;;0.00;0.00;;;;;;;;5052306;28;9567;-77
2022/01/01 07:42:18;;;;;;;;;0.00;0.00;;;;;;;;5052404;27;8823;-78
2022/01/01 07:44:44;;;;;;;;;3.25;3.25;;;;;;;;5079337;27;8828;-77
2022/01/01 07:47:09;;;;;;;;;28.75;27.25;;;;;;;;5052297;27;8831;-77
2022/01/01 07:49:35;;;;;;;;;0.25;0.25;;;;;;;;5052422;28;8853;-78
2022/01/01 07:52:00;;;;;;;;;0.00;0.00;;;;;;;;5096884;27;8800;-77
2022/01/01 07:54:25;;;;;;;;;0.00;0.00;;;;;;;;5039396;28;8792;-77
2022/01/01 07:56:51;;;;;;;;;61.67;52.67;;;;;;;;5051441;27;9528;-78
2022/01/01 07:59:16;;;;;;;;;0.25;0.25;;;;;;;;5052281;28;8804;-77
2022/01/01 08:01:43;;;;;;;;;0.00;0.00;;;;;;;;5051681;27;8834;-77
2022/01/01 08:04:08;;;;;;;;;42.60;37.40;;;;;;;;5052275;28;8847;-77
2022/01/01 08:06:34;;;;;;;;;0.00;0.00;;;;;;;;5051510;27;8856;-76
2022/01/01 08:08:59;;;;;;;;;0.00;0.00;;;;;;;;5051358;27;8847;-78
2022/01/01 08:11:24;;;;;;;;;0.00;0.00;;;;;;;;5051432;28;8852;-77
2022/01/01 08:13:50;;;;;;;;;0.00;0.00;;;;;;;;5051813;28;8812;-79
2022/01/01 08:16:15;;;;;;;;;0.00;0.00;;;;;;;;5052485;27;8920;-79
2022/01/01 08:18:41;;;;;;;;;0.75;0.75;;;;;;;;5051349;28;8820;-77
2022/01/01 08:21:06;;;;;;;;;0.00;0.00;;;;;;;;5051557;27;8816;-76
2022/01/01 08:23:31;;;;;;;;;0.00;0.00;;;;;;;;5049835;28;8891;-75
2022/01/01 08:25:58;;;;;;;;;0.00;0.00;;;;;;;;5049885;28;8832;-75
2022/01/01 08:28:23;;;;;;;;;0.00;0.00;;;;;;;;5052324;27;8830;-75
2022/01/01 08:30:49;;;;;;;;;0.00;0.00;;;;;;;;5051040;27;8819;-75
2022/01/01 08:33:15;;;;;;;;;0.00;0.00;;;;;;;;5050449;28;8823;-75
2022/01/01 08:35:40;;;;;;;;;0.00;0.00;;;;;;;;5049712;27;8880;-75
2022/01/01 08:38:06;;;;;;;;;0.00;0.00;;;;;;;;5100953;27;8815;-75
2022/01/01 08:40:31;;;;;;;;;0.00;0.00;;;;;;;;5050753;27;8848;-75
2022/01/01 08:42:57;;;;;;;;;0.00;0.00;;;;;;;;5063829;27;8793;-75
2022/01/01 08:45:23;;;;;;;;;0.00;0.00;;;;;;;;5060391;27;8890;-76
2022/01/01 08:47:48;;;;;;;;;0.00;0.00;;;;;;;;5063250;27;8812;-75
2022/01/01 08:50:14;;;;;;;;;0.00;0.00;;;;;;;;5064093;27;8836;-75
2022/01/01 08:52:40;;;;;;;;;0.00;0.00;;;;;;;;5068376;27;8820;-76
2022/01/01 08:55:05;;;;;;;;;0.00;0.00;;;;;;;;5051212;28;8820;-76
2022/01/01 08:57:32;;;;;;;;;0.00;0.00;;;;;;;;5052941;27;8927;-76
2022/01/01 08:59:57;;;;;;;;;0.00;0.00;;;;;;;;5053594;27;8923;-76
2022/01/01 09:02:23;;;;;;;;;0.00;0.00;;;;;;;;5050726;27;8826;-76
2022/01/01 09:04:49;;;;;;;;;0.00;0.00;;;;;;;;5055050;27;8831;-76
2022/01/01 09:07:14;;;;;;;;;0.00;0.00;;;;;;;;5050343;27;8872;-75
2022/01/01 09:09:40;;;;;;;;;0.00;0.00;;;;;;;;5050566;28;8811;-75
2022/01/01 09:12:07;;;;;;;;;0.00;0.00;;;;;;;;5049673;27;8892;-75
2022/01/01 09:14:32;;;;;;;;;0.00;0.00;;;;;;;;5051075;28;8972;-75
2022/01/01 09:16:57;;;;;;;;;0.00;0.00;;;;;;;;5050651;27;8907;-75
2022/01/01 09:19:23;;;;;;;;;0.00;0.00;;;;;;;;5058364;27;8932;-75
2022/01/01 09:21:48;;;;;;;;;0.00;0.00;;;;;;;;5059630;27;8818;-75
2022/01/01 09:24:13;;;;;;;;;0.00;0.00;;;;;;;;5050377;28;8796;-75
2022/01/01 09:26:38;;;;;;;;;0.00;0.00;;;;;;;;5050660;28;8835;-75
2022/01/01 09:29:04;;;;;;;;;0.00;0.00;;;;;;;;5049896;27;9543;-75
2022/01/01 09:31:30;;;;;;;;;0.00;0.00;;;;;;;;5050957;28;8799;-75
2022/01/01 09:33:55;;;;;;;;;0.00;0.00;;;;;;;;5050384;27;8914;-76
2022/01/01 09:36:21;;;;;;;;;0.00;0.00;;;;;;;;5050462;28;8907;-76
2022/01/01 09:38:47;;;;;;;;;0.00;0.00;;;;;;;;5051391;27;8836;-76
2022/01/01 09:41:14;;;;;;;;;0.00;0.00;;;;;;;;5049204;28;8919;-76
2022/01/01 09:43:39;;;;;;;;;0.00;0.00;;;;;;;;5073966;27;8943;-76
2022/01/01 09:46:05;;;;;;;;;0.00;0.00;;;;;;;;5049937;28;8824;-77
2022/01/01 09:48:31;;;;;;;;;0.00;0.00;;;;;;;;5050040;28;8796;-77
2022/01/01 09:50:57;;;;;;;;;0.00;0.00;;;;;;;;5066345;27;9529;-76
2022/01/01 09:53:24;;;;;;;;;0.00;0.00;;;;;;;;5085228;27;8847;-76
2022/01/01 09:55:50;;;;;;;;;0.00;0.00;;;;;;;;5050819;28;8896;-76
2022/01/01 09:58:15;;;;;;;;;0.00;0.00;;;;;;;;5048850;27;8784;-76
2022/01/01 10:00:41;;;;;;;;;0.00;0.00;;;;;;;;5048294;28;8820;-76
2022/01/01 10:03:10;;;;;;;;;0.00;0.00;;;;;;;;5050948;27;8804;-76
2022/01/01 10:05:55;;;;;;;;;0.00;0.00;;;;;;;;5047948;28;8763;-76
2022/01/01 10:08:24;;;;;;;;;0.00;0.00;;;;;;;;5049247;27;9509;-76
2022/01/01 10:10:52;;;;;;;;;0.00;0.00;;;;;;;;5049534;27;8820;-78
2022/01/01 10:13:17;;;;;;;;;0.00;0.00;;;;;;;;5048450;28;8834;-77
2022/01/01 10:15:43;;;;;;;;;0.00;0.00;;;;;;;;5049557;27;8908;-77
2022/01/01 10:18:08;;;;;;;;;0.00;0.00;;;;;;;;5047826;28;9640;-78
2022/01/01 10:20:36;;;;;;;;;0.00;0.00;;;;;;;;5050039;27;8899;-78
2022/01/01 10:23:12;;;;;;;;;0.00;0.00;;;;;;;;5049267;28;8779;-78
2022/01/01 10:28:21;;;;;;;;;0.00;0.00;;;;;;;;5049847;28;8762;-78
2022/01/01 10:30:48;;;;;;;;;0.00;0.00;;;;;;;;5049029;27;8882;-78
2022/01/01 10:33:15;;;;;;;;;0.00;0.00;;;;;;;;5050167;28;8818;-76
2022/01/01 10:35:41;;;;;;;;;0.00;0.00;;;;;;;;5048769;27;8824;-76
2022/01/01 10:38:14;;;;;;;;;0.00;0.00;;;;;;;;5050068;27;8892;-76
2022/01/01 10:40:40;;;;;;;;;0.00;0.00;;;;;;;;5048986;27;8764;-76
2022/01/01 10:43:05;;;;;;;;;0.00;0.00;;;;;;;;5057220;27;8784;-76
2022/01/01 10:45:35;;;;;;;;;0.00;0.00;;;;;;;;5068753;27;8863;-76
2022/01/01 10:48:14;;;;;;;;;0.00;0.00;;;;;;;;5039888;28;8878;-77
2022/01/01 10:50:40;;;;;;;;;0.00;0.00;;;;;;;;5057869;27;8774;-77
2022/01/01 10:53:10;;;;;;;;;0.00;0.00;;;;;;;;5092522;27;8768;-77
2022/01/01 10:55:39;;;;;;;;;0.00;0.00;;;;;;;;5049462;27;8827;-77
2022/01/01 10:58:04;;;;;;;;;0.00;0.00;;;;;;;;5051723;27;8798;-77
2022/01/01 11:00:29;;;;;;;;;0.00;0.00;;;;;;;;5051963;27;8799;-77
2022/01/01 11:02:58;;;;;;;;;0.00;0.00;;;;;;;;5052148;28;8847;-77
2022/01/01 11:05:31;;;;;;;;;0.00;0.00;;;;;;;;5060274;27;8819;-77
2022/01/01 11:07:56;;;;;;;;;0.00;0.00;;;;;;;;5053408;27;8925;-77
2022/01/01 11:10:22;;;;;;;;;0.00;0.00;;;;;;;;5052680;27;8812;-77
2022/01/01 11:12:48;;;;;;;;;0.00;0.00;;;;;;;;5051545;28;8811;-77
2022/01/01 11:15:13;;;;;;;;;0.00;0.00;;;;;;;;5052453;28;8813;-77
2022/01/01 11:17:39;;;;;;;;;0.00;0.00;;;;;;;;5051784;28;8808;-77
2022/01/01 11:20:06;;;;;;;;;0.00;0.00;;;;;;;;5054400;27;8826;-76
2022/01/01 11:22:32;;;;;;;;;0.00;0.00;;;;;;;;5057362;28;8752;-77
2022/01/01 11:24:58;;;;;;;;;0.00;0.00;;;;;;;;5051647;27;8850;-75
2022/01/01 11:27:25;;;;;;;;;0.00;0.00;;;;;;;;5052478;28;8919;-77
2022/01/01 11:29:53;;;;;;;;;0.00;0.00;;;;;;;;5051562;27;8861;-78
2022/01/01 11:32:20;;;;;;;;;0.00;0.00;;;;;;;;5052288;28;8768;-77
2022/01/01 11:34:47;;;;;;;;;0.00;0.00;;;;;;;;5051853;27;8834;-77
2022/01/01 11:37:14;;;;;;;;;0.00;0.00;;;;;;;;5052243;28;8768;-77
2022/01/01 11:39:40;;;;;;;;;0.00;0.00;;;;;;;;5051815;27;8744;-77
2022/01/01 11:42:08;;;;;;;;;0.00;0.00;;;;;;;;5050361;28;9282;-77
2022/01/01 11:44:35;;;;;;;;;0.00;0.00;;;;;;;;5050608;27;8881;-77
2022/01/01 11:47:00;;;;;;;;;0.00;0.00;;;;;;;;5052628;27;9760;-77
2022/01/01 11:49:27;;;;;;;;;0.00;0.00;;;;;;;;5051615;27;8849;-77
2022/01/01 11:51:54;;;;;;;;;0.00;0.00;;;;;;;;5071054;27;8776;-76
2022/01/01 11:54:26;;;;;;;;;0.00;0.00;;;;;;;;5051277;27;8919;-76
2022/01/01 11:56:51;;;;;;;;;0.00;0.00;;;;;;;;5049609;27;8870;-78
2022/01/01 11:59:24;;;;;;;;;0.00;0.00;;;;;;;;5053524;28;8834;-78
2022/01/01 12:01:50;;;;;;;;;0.00;0.00;;;;;;;;5052777;27;8778;-79
2022/01/01 12:04:25;;;;;;;;;0.00;0.00;;;;;;;;5053562;28;8819;-77
2022/01/01 12:06:56;;;;;;;;;0.00;0.00;;;;;;;;5049850;27;9739;-78
2022/01/01 12:09:22;;;;;;;;;0.00;0.00;;;;;;;;5050126;28;8914;-77
2022/01/01 12:11:55;;;;;;;;;0.00;0.00;;;;;;;;5051415;27;8788;-78
2022/01/01 12:14:24;;;;;;;;;0.00;0.00;;;;;;;;5051329;28;8778;-78
2022/01/01 12:16:51;;;;;;;;;0.00;0.00;;;;;;;;5049571;27;8840;-78
2022/01/01 12:19:19;;;;;;;;;0.00;0.00;;;;;;;;5052033;28;8764;-78
2022/01/01 12:21:44;;;;;;;;;0.00;0.00;;;;;;;;5051076;27;8896;-78
2022/01/01 12:24:17;;;;;;;;;0.00;0.00;;;;;;;;5051777;28;8791;-77
2022/01/01 12:26:49;;;;;;;;;0.00;0.00;;;;;;;;5064535;28;8830;-77
2022/01/01 12:29:14;;;;;;;;;0.00;0.00;;;;;;;;5052392;27;8836;-78
2022/01/01 12:31:53;;;;;;;;;0.00;0.00;;;;;;;;5051911;28;9708;-78
2022/01/01 12:34:18;;;;;;;;;0.00;0.00;;;;;;;;5046007;28;8819;-78
2022/01/01 12:36:49;;;;;;;;;0.00;0.00;;;;;;;;5051974;27;8824;-77
2022/01/01 12:39:15;;;;;;;;;0.00;0.00;;;;;;;;5049174;28;8889;-78
2022/01/01 12:41:45;;;;;;;;;0.00;0.00;;;;;;;;5051529;28;8819;-79
2022/01/01 12:44:13;;;;;;;;;0.00;0.00;;;;;;;;5061314;27;8752;-78
2022/01/01 12:46:39;;;;;;;;;0.00;0.00;;;;;;;;5050861;28;8820;-78
2022/01/01 12:49:06;;;;;;;;;0.00;0.00;;;;;;;;5051207;27;10157;-78
2022/01/01 12:51:37;;;;;;;;;0.00;0.00;;;;;;;;5079052;27;8949;-78
2022/01/01 12:54:06;;;;;;;;;0.00;0.00;;;;;;;;5051135;28;8753;-77
2022/01/01 12:56:33;;;;;;;;;0.00;0.00;;;;;;;;5050286;27;8784;-78
2022/01/01 12:59:00;;;;;;;;;0.00;0.00;;;;;;;;5100151;27;8911;-78
2022/01/01 13:01:25;;;;;;;;;0.00;0.00;;;;;;;;5050739;27;8816;-78
2022/01/01 13:03:55;;;;;;;;;0.00;0.00;;;;;;;;5052114;27;8872;-78
2022/01/01 13:06:21;;;;;;;;;0.00;0.00;;;;;;;;5050894;27;8810;-78
2022/01/01 13:08:47;;;;;;;;;0.00;0.00;;;;;;;;5051127;27;8824;-77
2022/01/01 13:11:16;;;;;;;;;0.00;0.00;;;;;;;;5049672;28;8827;-77
2022/01/01 13:13:42;;;;;;;;;0.00;0.00;;;;;;;;5051093;27;9779;-77
2022/01/01 13:16:08;;;;;;;;;0.00;0.00;;;;;;;;5050731;28;8793;-79
2022/01/01 13:18:33;;;;;;;;;0.00;0.00;;;;;;;;5050528;27;8855;-78
2022/01/01 13:20:58;;;;;;;;;0.00;0.00;;;;;;;;5063535;28;8781;-78
2022/01/01 13:23:24;;;;;;;;;0.00;0.00;;;;;;;;5049687;27;8848;-78
2022/01/01 13:25:51;;;;;;;;;0.00;0.00;;;;;;;;5050619;28;9002;-78
2022/01/01 13:28:16;;;;;;;;;0.00;0.00;;;;;;;;5051227;27;8783;-78
2022/01/01 13:30:41;;;;;;;;;0.00;0.00;;;;;;;;5063810;28;8792;-78
2022/01/01 13:33:07;;;;;;;;;0.00;0.00;;;;;;;;5048980;27;8968;-79
2022/01/01 13:35:32;;;;;;;;;0.00;0.00;;;;;;;;5049763;28;8850;-79
2022/01/01 13:37:58;;;;;;;;;0.00;0.00;;;;;;;;5050221;27;8812;-79
2022/01/01 13:40:23;;;;;;;;;0.00;0.00;;;;;;;;5050388;28;8928;-79
2022/01/01 13:42:48;;;;;;;;;0.00;0.00;;;;;;;;5050111;27;8938;-79
2022/01/01 13:45:14;;;;;;;;;0.00;0.00;;;;;;;;5069035;27;8836;-79
2022/01/01 13:47:40;;;;;;;;;0.00;0.00;;;;;;;;5050580;27;8965;-79
2022/01/01 13:50:13;;;;;;;;;0.00;0.00;;;;;;;;5050463;28;9582;-78
2022/01/01 13:52:38;;;;;;;;;0.00;0.00;;;;;;;;5088631;27;8864;-78
2022/01/01 13:55:05;;;;;;;;;0.00;0.00;;;;;;;;5050533;28;8892;-79
2022/01/01 13:57:34;;;;;;;;;0.00;0.00;;;;;;;;5050856;27;8819;-79
2022/01/01 14:00:00;;;;;;;;;0.00;0.00;;;;;;;;5049996;28;10495;-79
2022/01/01 14:02:26;;;;;;;;;0.00;0.00;;;;;;;;5050254;27;8893;-79
2022/01/01 14:04:54;;;;;;;;;0.00;0.00;;;;;;;;5051252;27;8800;-78
2022/01/01 14:07:19;;;;;;;;;0.00;0.00;;;;;;;;5050291;27;8772;-78
2022/01/01 14:09:57;;;;;;;;;0.00;0.00;;;;;;;;5049800;28;8808;-78
2022/01/01 14:12:24;;;;;;;;;0.00;0.00;;;;;;;;5049413;27;8834;-78
2022/01/01 14:14:49;;;;;;;;;0.00;0.00;;;;;;;;5049894;27;8847;-77
2022/01/01 14:17:14;;;;;;;;;0.00;0.00;;;;;;;;5042400;28;9649;-78
2022/01/01 14:19:40;;;;;;;;;0.00;0.00;;;;;;;;5051541;27;9008;-78
2022/01/01 14:22:10;;;;;;;;;0.00;0.00;;;;;;;;5063810;28;9014;-78
2022/01/01 14:24:47;;;;;;;;;0.00;0.00;;;;;;;;5056901;27;8811;-77
2022/01/01 14:27:12;;;;;;;;;0.00;0.00;;;;;;;;5049757;28;8839;-77
2022/01/01 14:29:38;;;;;;;;;0.00;0.00;;;;;;;;5049628;27;8852;-78
2022/01/01 14:32:04;;;;;;;;;0.00;0.00;;;;;;;;5051612;27;8828;-78
2022/01/01 14:34:29;;;;;;;;;0.00;0.00;;;;;;;;5052926;28;8808;-79
2022/01/01 14:36:54;;;;;;;;;0.00;0.00;;;;;;;;5049150;27;8819;-79
2022/01/01 14:39:20;;;;;;;;;0.00;0.00;;;;;;;;5055691;28;8835;-79
2022/01/01 14:41:46;;;;;;;;;0.00;0.00;;;;;;;;5052152;28;8847;-81
2022/01/01 14:44:12;;;;;;;;;0.00;0.00;;;;;;;;5065312;27;8828;-81
2022/01/01 14:46:42;;;;;;;;;0.00;0.00;;;;;;;;5052445;28;8816;-81
2022/01/01 14:49:30;;;;;;;;;0.00;0.00;;;;;;;;5052905;27;8757;-81
2022/01/01 14:52:02;;;;;;;;;0.00;0.00;;;;;;;;5107662;27;8832;-74